Time;durP1;ratioP1;P1;durP2;ratioP2;P2;SDS_P1;SDS_P2;PMS_P1;PMS_P2;Temp;Humidity;BMP_temperature;BMP_pressure;BME280_temperature;BME280_humidity;BME280_pressure;Samples;Min_cycle;Max_cycle;Signal;HPM_P1;HPM_P2
2021/04/06 00:02:20;;;;;;;6.78;3.45;;;-2.30;99.90;;;;;;5005513;28;20057;-74
2021/04/06 00:04:48;;;;;;;11.38;10.38;;;-2.30;99.90;;;;;;5011151;28;20025;-74
2021/04/06 00:07:17;;;;;;;8.43;7.78;;;-2.40;99.90;;;;;;5011215;28;20096;-74
2021/04/06 00:09:47;;;;;;;5.30;3.70;;;-2.30;99.90;;;;;;5011379;28;20029;-75
2021/04/06 00:12:15;;;;;;;9.85;9.15;;;-2.30;99.90;;;;;;5006748;28;20018;-74
2021/04/06 00:14:42;;;;;;;3.88;3.40;;;-2.30;99.90;;;;;;5011787;28;20033;-74
2021/04/06 00:17:09;;;;;;;7.07;4.47;;;-2.30;99.90;;;;;;5008407;28;20021;-75
2021/04/06 00:19:39;;;;;;;9.30;3.92;;;-2.20;99.90;;;;;;5005893;28;20484;-75
2021/04/06 00:22:06;;;;;;;6.22;3.97;;;-2.10;99.90;;;;;;5013273;28;20046;-74
2021/04/06 00:24:35;;;;;;;9.10;3.90;;;-2.00;99.90;;;;;;5000988;28;20041;-74
2021/04/06 00:27:18;;;;;;;5.90;4.15;;;-2.10;99.90;;;;;;5012279;28;20026;-75
2021/04/06 00:29:51;;;;;;;8.65;4.50;;;-2.00;99.90;;;;;;5013404;28;20365;-74
2021/04/06 00:32:19;;;;;;;12.05;11.20;;;-2.10;99.90;;;;;;5013316;28;20026;-74
2021/04/06 00:34:45;;;;;;;7.05;4.47;;;-2.10;99.90;;;;;;5013123;28;20044;-74
2021/04/06 00:37:15;;;;;;;7.07;4.40;;;-2.10;99.90;;;;;;5013173;28;20048;-75
2021/04/06 00:39:41;;;;;;;4.93;4.40;;;-2.10;99.90;;;;;;5013233;28;20105;-74
2021/04/06 00:42:14;;;;;;;8.98;8.23;;;-2.00;99.90;;;;;;5013000;28;20099;-74
2021/04/06 00:44:47;;;;;;;8.13;4.13;;;-2.00;99.90;;;;;;5012933;28;20037;-74
2021/04/06 00:47:14;;;;;;;5.18;4.40;;;-2.00;99.90;;;;;;5011927;28;20022;-74
2021/04/06 00:49:45;;;;;;;4.78;4.05;;;-2.00;99.90;;;;;;5013023;28;20026;-74
2021/04/06 00:52:11;;;;;;;7.18;4.75;;;-2.10;99.90;;;;;;5012769;28;20083;-74
2021/04/06 00:54:37;;;;;;;8.82;4.43;;;-2.10;99.90;;;;;;5012651;28;20025;-74
2021/04/06 00:57:06;;;;;;;10.60;9.90;;;-2.10;99.90;;;;;;5012935;28;20018;-75
2021/04/06 00:59:32;;;;;;;6.65;4.40;;;-1.90;99.90;;;;;;5012861;28;20025;-76
2021/04/06 01:02:05;;;;;;;6.13;4.65;;;-2.00;99.90;;;;;;5012759;28;20064;-76
2021/04/06 01:04:36;;;;;;;11.05;10.05;;;-2.00;99.90;;;;;;5011409;28;20022;-75
2021/04/06 01:07:03;;;;;;;4.60;4.07;;;-2.00;99.90;;;;;;5012607;28;20387;-76
2021/04/06 01:09:44;;;;;;;6.07;4.85;;;-2.00;99.90;;;;;;5012463;28;20104;-75
2021/04/06 01:12:12;;;;;;;7.60;4.30;;;-1.90;99.90;;;;;;5011262;28;20060;-75
2021/04/06 01:14:40;;;;;;;10.90;4.53;;;-2.00;99.90;;;;;;5012391;28;20075;-75
2021/04/06 01:17:11;;;;;;;6.57;4.60;;;-1.90;99.90;;;;;;5011422;28;20022;-74
2021/04/06 01:19:38;;;;;;;11.38;10.15;;;-1.90;99.90;;;;;;5011639;28;20022;-75
2021/04/06 01:22:07;;;;;;;10.98;10.18;;;-1.80;99.90;;;;;;5011554;28;20072;-75
2021/04/06 01:24:33;;;;;;;8.98;5.10;;;-1.80;99.90;;;;;;5011208;28;20021;-76
2021/04/06 01:27:00;;;;;;;8.07;4.68;;;-1.70;99.90;;;;;;5011644;28;20033;-75
2021/04/06 01:29:26;;;;;;;10.40;9.55;;;-1.70;99.90;;;;;;5012871;28;20045;-75
2021/04/06 01:31:57;;;;;;;6.40;4.43;;;-1.80;99.90;;;;;;5011799;28;20484;-75
2021/04/06 01:34:24;;;;;;;6.70;4.80;;;-1.80;99.90;;;;;;5011000;28;20116;-76
2021/04/06 01:36:54;;;;;;;8.63;4.60;;;-1.70;99.90;;;;;;5012687;28;20369;-76
2021/04/06 01:39:28;;;;;;;8.20;5.00;;;-1.70;99.90;;;;;;5010910;28;20026;-75
2021/04/06 01:42:01;;;;;;;6.10;4.95;;;-1.70;99.90;;;;;;5012197;28;20105;-75
2021/04/06 01:44:28;;;;;;;7.82;4.95;;;-1.80;99.90;;;;;;5010688;28;20036;-76
2021/04/06 01:46:56;;;;;;;5.95;4.88;;;-1.80;99.90;;;;;;5010851;28;20065;-76
2021/04/06 01:49:22;;;;;;;9.45;5.10;;;-1.80;99.90;;;;;;5010810;28;20069;-75
2021/04/06 01:51:48;;;;;;;10.57;9.77;;;-1.80;99.90;;;;;;5011970;28;20026;-75
2021/04/06 01:54:17;;;;;;;8.30;4.93;;;-1.90;99.90;;;;;;5011932;28;20033;-75
2021/04/06 01:56:52;;;;;;;8.68;5.30;;;-1.80;99.90;;;;;;5012109;28;20538;-75
2021/04/06 01:59:24;;;;;;;13.73;12.77;;;-1.80;99.90;;;;;;5010876;28;20025;-76
2021/04/06 02:01:54;;;;;;;12.18;11.27;;;-1.70;99.90;;;;;;5007547;28;20041;-75
2021/04/06 02:04:24;;;;;;;8.77;5.15;;;-1.70;99.90;;;;;;5006443;28;20551;-76
2021/04/06 02:06:51;;;;;;;8.13;5.05;;;-1.70;99.90;;;;;;5010769;28;20048;-74
2021/04/06 02:09:19;;;;;;;12.43;11.35;;;-1.70;99.90;;;;;;5011905;28;20152;-74
2021/04/06 02:11:45;;;;;;;12.82;11.90;;;-1.70;99.90;;;;;;5011848;28;20109;-74
2021/04/06 02:14:13;;;;;;;13.82;12.70;;;-1.70;99.90;;;;;;5010409;28;20040;-74
2021/04/06 02:16:48;;;;;;;6.90;5.00;;;-1.70;99.90;;;;;;5010719;28;20030;-74
2021/04/06 02:19:20;;;;;;;12.80;11.70;;;-1.70;99.90;;;;;;5011909;28;20026;-74
2021/04/06 02:21:50;;;;;;;6.50;5.18;;;-1.70;99.90;;;;;;5014425;28;20028;-76
2021/04/06 02:24:29;;;;;;;6.68;4.85;;;-1.60;99.90;;;;;;5015770;28;20026;-77
2021/04/06 02:26:59;;;;;;;7.15;4.22;;;-1.60;99.90;;;;;;5015767;28;20105;-76
2021/04/06 02:29:25;;;;;;;13.05;11.82;;;-1.70;99.90;;;;;;5015621;28;20104;-76
2021/04/06 02:31:50;;;;;;;14.30;13.32;;;-1.60;99.90;;;;;;5015524;28;20500;-76
2021/04/06 02:34:16;;;;;;;6.43;4.45;;;-1.50;99.90;;;;;;5015460;28;20029;-77
2021/04/06 02:36:45;;;;;;;13.43;12.38;;;-1.50;99.90;;;;;;5015429;28;20124;-76
2021/04/06 02:39:11;;;;;;;7.40;4.30;;;-1.50;99.90;;;;;;5015445;28;20029;-75
2021/04/06 02:41:37;;;;;;;13.07;12.15;;;-1.60;99.90;;;;;;5015338;28;20132;-74
2021/04/06 02:44:03;;;;;;;13.43;12.23;;;-1.60;99.90;;;;;;5015125;28;20037;-75
2021/04/06 02:46:29;;;;;;;12.13;11.07;;;-1.60;99.90;;;;;;5015275;28;20080;-75
2021/04/06 02:48:56;;;;;;;6.95;4.40;;;-1.50;99.90;;;;;;5014044;28;20032;-75
2021/04/06 02:51:22;;;;;;;7.00;4.55;;;-1.60;99.90;;;;;;5015002;28;20395;-74
2021/04/06 02:53:52;;;;;;;11.23;9.95;;;-1.60;99.90;;;;;;5013579;28;20034;-74
2021/04/06 02:56:35;;;;;;;16.23;14.82;;;-1.60;99.90;;;;;;5013859;28;20026;-74
2021/04/06 02:59:21;;;;;;;10.90;10.05;;;-1.60;99.90;;;;;;5015204;28;20101;-74
2021/04/06 03:01:57;;;;;;;4.97;4.22;;;-1.60;99.90;;;;;;5001867;28;20029;-74
2021/04/06 03:04:27;;;;;;;11.48;10.45;;;-1.60;99.90;;;;;;5013452;28;20026;-73
2021/04/06 03:06:57;;;;;;;6.13;4.50;;;-1.50;99.90;;;;;;5014899;28;20477;-74
2021/04/06 03:09:26;;;;;;;7.10;3.70;;;-1.60;99.90;;;;;;5013937;28;20028;-71
2021/04/06 03:11:54;;;;;;;10.23;9.43;;;-1.50;99.90;;;;;;5014832;28;20072;-72
2021/04/06 03:14:25;;;;;;;7.65;4.40;;;-1.50;99.90;;;;;;5014540;28;20475;-72
2021/04/06 03:16:52;;;;;;;5.88;3.95;;;-1.50;99.90;;;;;;5013550;28;20030;-72
2021/04/06 03:19:27;;;;;;;5.85;3.95;;;-1.50;99.90;;;;;;5013419;28;20022;-72
2021/04/06 03:21:53;;;;;;;9.98;8.90;;;-1.40;99.90;;;;;;5013345;28;20412;-72
2021/04/06 03:24:20;;;;;;;12.15;9.88;;;-1.60;99.90;;;;;;5013066;28;20045;-72
2021/04/06 03:26:48;;;;;;;9.98;8.93;;;-1.50;99.90;;;;;;5014596;28;20109;-73
2021/04/06 03:29:13;;;;;;;6.97;4.07;;;-1.50;99.90;;;;;;5014486;28;20018;-73
2021/04/06 03:31:39;;;;;;;11.43;10.43;;;-1.60;99.90;;;;;;5012686;28;20376;-74
2021/04/06 03:34:05;;;;;;;12.25;11.18;;;-1.50;99.90;;;;;;5013289;28;20495;-72
2021/04/06 03:36:32;;;;;;;7.88;3.90;;;-1.40;99.90;;;;;;5013293;28;20029;-72
2021/04/06 03:39:11;;;;;;;9.82;7.30;;;-1.50;99.90;;;;;;5014431;28;20048;-73
2021/04/06 03:41:37;;;;;;;8.25;3.85;;;-1.30;99.90;;;;;;5014220;28;20029;-72
2021/04/06 03:44:08;;;;;;;6.75;3.67;;;-1.40;99.90;;;;;;5012791;28;20124;-74
2021/04/06 03:46:34;;;;;;;7.47;3.70;;;-1.40;99.90;;;;;;5014204;28;20472;-72
2021/04/06 03:49:22;;;;;;;8.18;4.15;;;-1.50;99.90;;;;;;5014198;28;20030;-74
2021/04/06 03:51:50;;;;;;;9.30;4.10;;;-1.40;99.90;;;;;;5013923;28;20022;-74
2021/04/06 03:54:37;;;;;;;6.47;3.92;;;-1.40;99.90;;;;;;5013929;28;20034;-73
2021/04/06 03:57:20;;;;;;;7.97;3.50;;;-1.40;99.90;;;;;;5012761;28;20506;-74
2021/04/06 03:59:45;;;;;;;8.02;3.83;;;-1.20;99.90;;;;;;5014019;28;20105;-73
2021/04/06 04:02:11;;;;;;;6.63;2.97;;;-1.40;99.90;;;;;;5013764;28;20116;-73
2021/04/06 04:04:38;;;;;;;6.82;3.08;;;-1.40;99.90;;;;;;5013593;28;20113;-73
2021/04/06 04:07:04;;;;;;;8.32;7.45;;;-1.30;99.90;;;;;;5014043;28;20014;-74
2021/04/06 04:09:30;;;;;;;14.00;8.85;;;-1.40;99.90;;;;;;5013026;28;20475;-73
2021/04/06 04:11:55;;;;;;;10.95;9.13;;;-1.30;99.90;;;;;;5013848;28;20076;-73
2021/04/06 04:14:21;;;;;;;7.95;3.45;;;-1.30;99.90;;;;;;5013535;28;20029;-73
2021/04/06 04:16:47;;;;;;;9.40;3.95;;;-1.30;99.90;;;;;;5013690;28;20022;-71
2021/04/06 04:19:12;;;;;;;6.70;3.50;;;-1.30;99.90;;;;;;5012327;28;20030;-72
2021/04/06 04:21:38;;;;;;;10.02;5.78;;;-1.30;99.90;;;;;;5013397;28;20029;-72
2021/04/06 04:24:04;;;;;;;30.58;27.75;;;-1.30;99.90;;;;;;5013219;28;20541;-71
2021/04/06 04:26:29;;;;;;;19.58;17.70;;;-1.30;99.90;;;;;;5013539;28;20530;-73
2021/04/06 04:28:55;;;;;;;30.15;27.17;;;-1.30;99.90;;;;;;5013434;28;20021;-73
2021/04/06 04:31:20;;;;;;;66.57;54.35;;;-1.30;99.90;;;;;;5012018;28;20026;-73
2021/04/06 04:33:46;;;;;;;36.08;32.67;;;-1.20;99.90;;;;;;5013071;28;20049;-72
2021/04/06 04:36:12;;;;;;;18.65;17.05;;;-1.20;99.90;;;;;;5013163;28;20033;-72
2021/04/06 04:38:37;;;;;;;8.10;4.57;;;-1.20;99.90;;;;;;5013110;28;20030;-72
2021/04/06 04:41:03;;;;;;;8.20;3.90;;;-1.20;99.90;;;;;;5013168;28;20034;-72
2021/04/06 04:43:29;;;;;;;6.80;3.38;;;-1.20;99.90;;;;;;5012019;28;20061;-72
2021/04/06 04:45:54;;;;;;;6.47;4.25;;;-1.20;99.90;;;;;;5013074;28;20025;-72
2021/04/06 04:48:20;;;;;;;9.23;3.90;;;-1.20;99.90;;;;;;5013013;28;20030;-72
2021/04/06 04:50:45;;;;;;;11.45;8.80;;;-1.20;99.90;;;;;;5011558;28;20026;-71
2021/04/06 04:53:11;;;;;;;12.90;5.95;;;-1.20;99.90;;;;;;5012728;28;20045;-71
2021/04/06 04:55:36;;;;;;;15.00;11.02;;;-1.30;99.90;;;;;;5012577;28;20032;-72
2021/04/06 04:58:02;;;;;;;11.90;10.77;;;-1.30;99.90;;;;;;5012721;28;20029;-73
2021/04/06 05:00:29;;;;;;;12.85;11.45;;;-1.20;99.90;;;;;;5012964;28;20033;-73
2021/04/06 05:02:54;;;;;;;17.48;15.88;;;-1.30;99.90;;;;;;5012739;28;20049;-73
2021/04/06 05:05:20;;;;;;;23.40;21.45;;;-1.30;99.90;;;;;;5011332;28;20072;-73
2021/04/06 05:07:46;;;;;;;14.27;13.13;;;-1.30;99.90;;;;;;5012758;28;20033;-73
2021/04/06 05:10:14;;;;;;;12.93;11.27;;;-1.30;99.90;;;;;;5012896;28;20052;-73
2021/04/06 05:12:40;;;;;;;7.03;3.90;;;-1.30;99.90;;;;;;5012543;28;20025;-72
2021/04/06 05:15:08;;;;;;;8.60;4.13;;;-1.30;99.90;;;;;;5012506;28;20038;-73
2021/04/06 05:17:33;;;;;;;11.25;10.00;;;-1.20;99.90;;;;;;5012507;28;20033;-72
2021/04/06 05:20:00;;;;;;;9.77;4.05;;;-1.20;99.90;;;;;;5012489;28;20026;-73
2021/04/06 05:22:25;;;;;;;9.70;3.85;;;-1.20;99.90;;;;;;5012162;28;20493;-73
2021/04/06 05:24:51;;;;;;;5.57;3.80;;;-1.20;99.90;;;;;;5012362;28;20026;-73
2021/04/06 05:27:17;;;;;;;11.73;10.25;;;-1.20;99.90;;;;;;5011278;28;20018;-73
2021/04/06 05:29:43;;;;;;;13.10;11.57;;;-1.20;99.90;;;;;;5012438;28;20431;-73
2021/04/06 05:32:08;;;;;;;13.07;11.80;;;-1.10;99.90;;;;;;5012263;28;20030;-73
2021/04/06 05:34:34;;;;;;;7.00;4.05;;;-1.10;99.90;;;;;;5012113;28;20066;-72
2021/04/06 05:37:00;;;;;;;12.38;10.38;;;-1.00;99.90;;;;;;5012382;28;20026;-73
2021/04/06 05:39:26;;;;;;;12.65;11.43;;;-1.00;99.90;;;;;;5012116;28;20029;-73
2021/04/06 05:41:51;;;;;;;11.68;10.60;;;-1.00;99.90;;;;;;5010561;28;20116;-73
2021/04/06 05:44:17;;;;;;;9.93;3.90;;;-1.00;99.90;;;;;;5010582;28;20551;-74
2021/04/06 05:46:46;;;;;;;8.77;3.95;;;-0.90;99.90;;;;;;5012272;28;20105;-73
2021/04/06 05:49:15;;;;;;;11.55;4.35;;;-0.80;99.90;;;;;;5012095;28;20097;-73
2021/04/06 05:51:43;;;;;;;10.65;8.70;;;-0.80;99.90;;;;;;5011965;28;20029;-73
2021/04/06 05:54:11;;;;;;;9.13;4.07;;;-0.80;99.90;;;;;;5011848;28;20037;-72
2021/04/06 05:56:37;;;;;;;11.13;9.88;;;-0.70;99.90;;;;;;5012050;28;20030;-72
2021/04/06 05:59:06;;;;;;;12.10;10.80;;;-0.80;99.90;;;;;;5010820;28;20029;-72
2021/04/06 06:01:33;;;;;;;13.68;10.70;;;-0.70;99.90;;;;;;5011989;28;20034;-73
2021/04/06 06:03:59;;;;;;;7.32;4.35;;;-0.70;99.90;;;;;;5010632;28;20396;-72
2021/04/06 06:06:24;;;;;;;7.65;4.43;;;-0.70;99.90;;;;;;5012081;28;20084;-72
2021/04/06 06:08:58;;;;;;;13.00;11.80;;;-0.70;99.90;;;;;;5011991;28;20543;-73
2021/04/06 06:11:24;;;;;;;14.25;13.13;;;-0.70;99.90;;;;;;5010768;28;20448;-74
2021/04/06 06:13:49;;;;;;;13.95;12.75;;;-0.50;99.90;;;;;;5011705;28;20126;-74
2021/04/06 06:16:20;;;;;;;11.05;9.75;;;-0.70;99.90;;;;;;5010762;28;20610;-72
2021/04/06 06:19:06;;;;;;;17.35;15.75;;;-0.70;99.90;;;;;;5011905;28;20376;-72
2021/04/06 06:21:46;;;;;;;19.15;17.30;;;-0.70;99.90;;;;;;5004862;28;20026;-73
2021/04/06 06:24:27;;;;;;;19.65;18.10;;;-0.70;99.90;;;;;;5009112;28;20153;-73
2021/04/06 06:26:56;;;;;;;13.70;12.48;;;-0.60;99.90;;;;;;5001262;28;20121;-73
2021/04/06 06:29:23;;;;;;;8.80;5.50;;;-0.50;99.90;;;;;;4999172;28;20126;-74
2021/04/06 06:31:55;;;;;;;15.88;14.23;;;-0.60;99.90;;;;;;5004954;28;20022;-73
2021/04/06 06:34:29;;;;;;;14.88;13.00;;;-0.50;99.90;;;;;;5003411;28;20022;-73
2021/04/06 06:37:26;;;;;;;8.98;5.43;;;-0.40;99.90;;;;;;5002969;28;20038;-73
2021/04/06 06:40:10;;;;;;;15.57;14.27;;;-0.40;99.90;;;;;;4998583;28;20231;-73
2021/04/06 06:42:39;;;;;;;14.77;13.57;;;-0.20;99.90;;;;;;5010181;28;20507;-73
2021/04/06 06:45:21;;;;;;;14.45;13.02;;;-0.30;99.90;;;;;;5005628;28;20030;-74
2021/04/06 06:47:57;;;;;;;8.65;5.50;;;-0.20;99.90;;;;;;4997453;28;20046;-73
2021/04/06 06:50:23;;;;;;;14.25;11.98;;;-0.30;99.90;;;;;;4993703;28;20117;-74
2021/04/06 06:52:55;;;;;;;16.38;15.07;;;-0.30;99.90;;;;;;5006011;28;20041;-73
2021/04/06 06:55:24;;;;;;;15.48;14.07;;;-0.20;99.90;;;;;;4999699;28;20022;-76
2021/04/06 06:57:50;;;;;;;15.90;14.38;;;-0.10;99.90;;;;;;4995798;28;20022;-73
2021/04/06 07:00:18;;;;;;;16.52;14.82;;;-0.20;99.90;;;;;;5010093;28;20018;-73
2021/04/06 07:02:44;;;;;;;11.25;10.13;;;-0.30;99.90;;;;;;5009512;28;20057;-73
2021/04/06 07:05:16;;;;;;;15.38;14.02;;;-0.20;99.90;;;;;;5000408;28;20021;-72
2021/04/06 07:08:03;;;;;;;13.93;12.52;;;-0.10;99.90;;;;;;5001382;28;20034;-72
2021/04/06 07:10:39;;;;;;;8.32;5.60;;;-0.20;99.90;;;;;;5013429;28;20056;-73
2021/04/06 07:13:07;;;;;;;;;;;-0.20;99.90;;;;;;5007340;28;20022;-74
2021/04/06 07:15:39;;;;;;;16.17;14.55;;;-0.10;99.90;;;;;;5013189;28;19967;-73
2021/04/06 07:18:17;;;;;;;16.67;15.38;;;0.00;99.90;;;;;;5010212;28;20097;-72
2021/04/06 07:20:51;;;;;;;15.43;13.63;;;0.20;99.90;;;;;;5009895;28;20108;-73
2021/04/06 07:23:58;;;;;;;16.58;15.00;;;0.20;99.90;;;;;;5010578;28;20037;-73
2021/04/06 07:26:25;;;;;;;13.50;12.07;;;0.30;99.90;;;;;;4999552;28;20557;-73
2021/04/06 07:28:52;;;;;;;11.02;9.70;;;0.30;99.90;;;;;;5014449;28;20022;-73
2021/04/06 07:31:18;;;;;;;15.07;13.52;;;0.20;99.90;;;;;;4999909;28;20037;-72
2021/04/06 07:33:45;;;;;;;9.45;6.65;;;0.20;99.90;;;;;;5005687;28;20056;-72
2021/04/06 07:36:39;;;;;;;12.57;11.27;;;0.20;99.90;;;;;;5012600;28;20025;-73
2021/04/06 07:39:07;;;;;;;13.48;12.07;;;0.40;99.90;;;;;;5012978;28;20546;-73
2021/04/06 07:41:46;;;;;;;13.88;10.85;;;0.40;99.90;;;;;;5014027;28;20026;-73
2021/04/06 07:44:13;;;;;;;15.02;13.18;;;0.20;99.90;;;;;;5010149;28;20077;-72
2021/04/06 07:46:40;;;;;;;20.00;18.00;;;0.00;99.90;;;;;;5008695;28;20037;-72
2021/04/06 07:49:07;;;;;;;22.02;20.27;;;-0.10;99.90;;;;;;5014180;28;20050;-73
2021/04/06 07:51:45;;;;;;;16.55;12.07;;;-0.30;99.90;;;;;;5010455;28;20105;-72
2021/04/06 07:54:18;;;;;;;16.98;14.93;;;-0.40;99.90;;;;;;5004501;28;20480;-73
2021/04/06 07:56:53;;;;;;;25.02;22.60;;;-0.40;99.90;;;;;;5009067;28;20030;-72
2021/04/06 07:59:18;;;;;;;20.90;18.98;;;-0.40;99.90;;;;;;5011412;28;20037;-72
2021/04/06 08:01:44;;;;;;;26.92;24.67;;;-0.30;99.90;;;;;;5007554;28;20515;-72
2021/04/06 08:04:11;;;;;;;31.05;28.77;;;-0.20;99.90;;;;;;5007169;28;20026;-72
2021/04/06 08:07:22;;;;;;;30.55;28.20;;;0.00;99.90;;;;;;5007541;28;20072;-73
2021/04/06 08:09:48;;;;;;;15.52;12.88;;;-0.10;99.90;;;;;;4977550;28;20033;-72
2021/04/06 08:12:33;;;;;;;18.80;16.83;;;-0.10;99.90;;;;;;5012420;28;20025;-72
2021/04/06 08:15:15;;;;;;;20.15;18.45;;;-0.10;99.90;;;;;;5037411;28;20025;-73
2021/04/06 08:17:44;;;;;;;18.67;12.43;;;0.10;99.90;;;;;;4999009;28;20602;-72
2021/04/06 08:20:21;;;;;;;21.92;19.65;;;0.30;99.90;;;;;;5013602;28;20097;-71
2021/04/06 08:22:50;;;;;;;22.33;20.48;;;0.40;99.90;;;;;;5000492;28;20026;-72
2021/04/06 08:25:19;;;;;;;22.83;20.83;;;0.40;99.90;;;;;;5001637;28;20036;-72
2021/04/06 08:27:49;;;;;;;14.93;13.57;;;0.50;99.90;;;;;;5002923;28;20021;-73
2021/04/06 08:30:35;;;;;;;13.82;10.88;;;0.60;99.90;;;;;;5002435;28;20376;-72
2021/04/06 08:33:01;;;;;;;;;;;0.60;99.90;;;;;;5012107;28;20025;-73
2021/04/06 08:38:29;;;;;;;15.63;13.98;;;1.10;99.90;;;;;;5009343;28;20034;-72
2021/04/06 08:41:12;;;;;;;12.48;11.18;;;1.10;99.90;;;;;;5007862;28;20026;-72
2021/04/06 08:43:50;;;;;;;13.85;10.40;;;1.30;99.90;;;;;;5009216;28;20018;-71
2021/04/06 08:46:27;;;;;;;13.32;11.98;;;1.50;99.90;;;;;;5007816;28;20026;-71
2021/04/06 08:48:56;;;;;;;10.70;7.05;;;1.60;99.90;;;;;;5002182;28;20025;-72
2021/04/06 08:51:54;;;;;;;9.23;5.78;;;1.60;99.90;;;;;;5012709;28;20025;-72
2021/04/06 08:54:22;;;;;;;9.88;6.93;;;1.70;99.90;;;;;;4987476;28;20496;-73
2021/04/06 08:57:00;;;;;;;5.63;5.07;;;1.70;99.90;;;;;;5005833;28;20022;-72
2021/04/06 08:59:31;;;;;;;7.85;6.28;;;1.80;99.90;;;;;;5000328;28;20038;-72
2021/04/06 09:01:58;;;;;;;9.63;5.80;;;1.70;99.90;;;;;;5008440;28;20022;-72
2021/04/06 09:04:36;;;;;;;9.80;5.43;;;1.80;99.90;;;;;;5006994;28;20032;-73
2021/04/06 09:07:15;;;;;;;5.95;4.53;;;1.70;99.90;;;;;;5008199;28;20033;-72
2021/04/06 09:09:41;;;;;;;6.55;5.53;;;1.70;99.90;;;;;;5003373;28;20026;-72
2021/04/06 09:12:07;;;;;;;8.70;5.47;;;1.70;99.90;;;;;;5002416;28;20416;-72
2021/04/06 09:14:32;;;;;;;6.45;3.90;;;1.80;99.90;;;;;;5005873;28;20515;-72
2021/04/06 09:16:58;;;;;;;7.22;5.28;;;1.80;99.90;;;;;;5004687;28;20088;-72
2021/04/06 09:19:25;;;;;;;7.50;4.72;;;1.80;99.90;;;;;;5002029;28;20462;-72
2021/04/06 09:21:53;;;;;;;6.90;4.93;;;2.00;99.90;;;;;;4999288;28;20026;-71
2021/04/06 09:24:21;;;;;;;8.40;5.32;;;2.00;99.90;;;;;;5008335;28;20030;-72
2021/04/06 09:26:49;;;;;;;8.82;5.65;;;2.10;99.90;;;;;;4995403;28;20106;-73
2021/04/06 09:29:22;;;;;;;7.90;5.25;;;2.20;99.90;;;;;;5002494;28;20491;-71
2021/04/06 09:31:55;;;;;;;7.78;6.07;;;2.20;99.90;;;;;;5002811;28;20042;-71
2021/04/06 09:34:32;;;;;;;13.60;6.45;;;1.90;99.90;;;;;;5005689;28;20022;-71
2021/04/06 09:37:12;;;;;;;7.53;5.40;;;1.70;99.90;;;;;;5002838;28;20041;-71
2021/04/06 09:39:50;;;;;;;11.38;6.22;;;1.60;99.90;;;;;;4999252;28;20031;-72
2021/04/06 09:42:16;;;;;;;11.43;7.38;;;1.50;99.90;;;;;;5005582;28;20033;-72
2021/04/06 09:44:43;;;;;;;19.17;8.93;;;1.40;99.90;;;;;;4999126;28;20410;-72
2021/04/06 09:47:11;;;;;;;8.98;6.97;;;0.70;99.90;;;;;;5005432;28;20030;-72
2021/04/06 09:49:43;;;;;;;13.02;6.00;;;0.30;99.90;;;;;;4999977;28;20022;-71
2021/04/06 09:52:13;;;;;;;6.40;5.32;;;0.10;99.90;;;;;;5000527;28;20639;-72
2021/04/06 09:54:43;;;;;;;8.18;6.93;;;0.10;99.90;;;;;;4999233;28;20479;-72
2021/04/06 09:57:10;;;;;;;10.32;7.35;;;-0.10;99.90;;;;;;5003523;28;20531;-72
2021/04/06 09:59:51;;;;;;;17.52;10.02;;;-0.10;99.90;;;;;;5000370;28;20026;-72
2021/04/06 10:02:20;;;;;;;12.27;9.55;;;-0.10;99.90;;;;;;4998649;28;20026;-72
2021/04/06 10:04:47;;;;;;;13.32;8.48;;;-0.20;99.90;;;;;;5004484;28;20032;-71
2021/04/06 10:07:16;;;;;;;13.07;8.20;;;-0.30;99.90;;;;;;5003855;28;20018;-73
2021/04/06 10:09:45;;;;;;;12.85;10.10;;;-0.20;99.90;;;;;;4997811;28;20558;-72
2021/04/06 10:12:12;;;;;;;12.95;10.13;;;0.20;99.90;;;;;;5005647;28;20022;-72
2021/04/06 10:14:39;;;;;;;14.95;10.65;;;0.50;99.90;;;;;;5002404;28;20084;-72
2021/04/06 10:17:07;;;;;;;14.93;11.15;;;0.90;99.90;;;;;;4999111;28;20066;-72
2021/04/06 10:19:35;;;;;;;11.60;10.45;;;0.70;99.90;;;;;;5000784;28;20117;-72
2021/04/06 10:22:17;;;;;;;13.02;9.32;;;0.50;99.90;;;;;;5000884;28;20022;-72
2021/04/06 10:24:53;;;;;;;11.98;9.52;;;0.30;99.90;;;;;;5003070;28;20026;-72
2021/04/06 10:27:26;;;;;;;11.35;10.02;;;0.60;99.90;;;;;;5004512;28;20030;-72
2021/04/06 10:29:57;;;;;;;14.38;10.68;;;1.10;99.90;;;;;;5002730;28;20030;-72
2021/04/06 10:32:35;;;;;;;11.40;9.27;;;1.60;99.90;;;;;;5003031;28;20037;-73
2021/04/06 10:35:13;;;;;;;10.70;9.43;;;2.10;99.90;;;;;;4999989;28;20168;-73
2021/04/06 10:37:43;;;;;;;10.05;8.48;;;2.40;99.90;;;;;;5002961;28;20420;-73
2021/04/06 10:40:42;;;;;;;11.50;8.75;;;2.30;99.90;;;;;;5001028;28;20049;-72
2021/04/06 10:43:16;;;;;;;22.40;16.27;;;2.60;99.90;;;;;;5007870;28;20030;-73
2021/04/06 10:45:46;;;;;;;13.40;10.20;;;3.60;99.90;;;;;;5007263;28;20121;-73
2021/04/06 10:48:21;;;;;;;9.32;7.60;;;4.00;99.90;;;;;;5008058;28;20021;-72
2021/04/06 10:51:00;;;;;;;10.68;7.07;;;3.60;99.90;;;;;;5005247;28;20117;-73
2021/04/06 10:53:33;;;;;;;7.00;5.60;;;3.10;99.90;;;;;;5008396;28;20033;-73
2021/04/06 10:56:12;;;;;;;7.32;6.00;;;2.90;99.90;;;;;;5002290;28;20060;-72
2021/04/06 10:58:39;;;;;;;8.30;5.88;;;2.80;99.90;;;;;;5006929;28;20036;-72
2021/04/06 11:01:08;;;;;;;11.32;6.65;;;2.70;99.90;;;;;;5006434;28;20468;-72
2021/04/06 11:03:43;;;;;;;8.02;5.40;;;2.80;99.90;;;;;;4998323;28;20224;-72
2021/04/06 11:06:15;;;;;;;5.90;4.32;;;2.50;99.90;;;;;;5008481;28;20053;-72
2021/04/06 11:08:43;;;;;;;6.28;4.70;;;2.50;99.90;;;;;;5001620;28;20034;-73
2021/04/06 11:11:25;;;;;;;7.07;6.07;;;2.50;99.90;;;;;;5006016;28;20018;-71
2021/04/06 11:13:52;;;;;;;9.65;6.15;;;2.40;99.90;;;;;;5009789;28;20049;-71
2021/04/06 11:16:18;;;;;;;9.02;4.95;;;2.10;99.90;;;;;;5007948;28;20504;-72
2021/04/06 11:18:58;;;;;;;8.18;4.18;;;2.00;99.90;;;;;;5008189;28;20041;-72
2021/04/06 11:21:23;;;;;;;10.23;4.97;;;1.00;99.90;;;;;;5012995;28;20045;-71
2021/04/06 11:23:49;;;;;;;10.90;5.25;;;1.20;99.90;;;;;;5008963;28;20116;-73
2021/04/06 11:26:15;;;;;;;7.10;4.38;;;1.20;99.90;;;;;;5009783;28;20030;-72
2021/04/06 11:28:41;;;;;;;5.85;4.28;;;1.50;99.90;;;;;;5008622;28;20018;-72
2021/04/06 11:31:07;;;;;;;7.22;4.45;;;1.70;99.90;;;;;;5008276;28;20022;-72
2021/04/06 11:33:33;;;;;;;6.57;4.65;;;1.50;99.90;;;;;;5005079;28;20029;-72
2021/04/06 11:35:58;;;;;;;8.00;5.00;;;1.40;99.90;;;;;;5009516;28;20077;-72
2021/04/06 11:38:24;;;;;;;8.48;5.13;;;1.20;99.90;;;;;;5006283;28;20026;-72
2021/04/06 11:40:49;;;;;;;8.77;5.93;;;1.00;99.90;;;;;;5007561;28;20395;-73
2021/04/06 11:43:15;;;;;;;6.97;5.07;;;0.90;99.90;;;;;;5008780;28;20026;-73
2021/04/06 11:45:40;;;;;;;8.52;6.00;;;0.90;99.90;;;;;;5000675;28;20091;-73
2021/04/06 11:48:06;;;;;;;11.60;9.93;;;1.00;99.90;;;;;;5001420;28;20529;-72
2021/04/06 11:50:32;;;;;;;7.93;5.55;;;1.00;99.90;;;;;;5005466;28;20033;-72
2021/04/06 11:52:58;;;;;;;9.25;6.55;;;1.00;99.90;;;;;;5007942;28;20033;-73
2021/04/06 11:55:23;;;;;;;10.52;7.10;;;1.70;99.90;;;;;;5005847;28;20026;-73
2021/04/06 11:57:49;;;;;;;8.15;5.57;;;2.30;99.90;;;;;;5012434;28;20029;-73
2021/04/06 12:00:16;;;;;;;7.85;5.55;;;2.30;99.90;;;;;;5013583;28;20022;-72
2021/04/06 12:02:42;;;;;;;5.85;4.60;;;1.90;99.90;;;;;;5011085;28;20033;-73
2021/04/06 12:05:08;;;;;;;5.35;4.80;;;2.10;99.90;;;;;;5013541;28;20503;-72
2021/04/06 12:07:34;;;;;;;7.80;5.32;;;2.20;99.90;;;;;;5012426;28;20392;-73
2021/04/06 12:10:00;;;;;;;6.50;5.10;;;2.20;99.90;;;;;;5013733;28;20117;-74
2021/04/06 12:12:26;;;;;;;7.35;4.88;;;2.60;99.90;;;;;;5013527;28;20026;-73
2021/04/06 12:14:52;;;;;;;6.90;4.82;;;3.10;99.90;;;;;;5012179;28;20084;-73
2021/04/06 12:17:17;;;;;;;9.15;5.75;;;3.70;99.90;;;;;;5012195;28;20080;-73
2021/04/06 12:19:43;;;;;;;6.53;4.63;;;3.90;99.90;;;;;;5013513;28;20083;-71
2021/04/06 12:22:09;;;;;;;6.30;4.90;;;3.90;99.90;;;;;;5013344;28;20075;-72
2021/04/06 12:24:34;;;;;;;6.80;5.00;;;4.40;99.90;;;;;;5011755;28;20407;-73
2021/04/06 12:27:00;;;;;;;6.05;4.57;;;4.70;99.90;;;;;;5013243;28;20483;-73
2021/04/06 12:29:25;;;;;;;5.70;4.80;;;5.30;99.90;;;;;;5012003;28;20018;-72
2021/04/06 12:31:51;;;;;;;7.05;4.55;;;6.00;99.90;;;;;;5013006;28;20373;-72
2021/04/06 12:34:16;;;;;;;6.95;4.90;;;6.40;99.90;;;;;;5013087;28;20049;-73
2021/04/06 12:36:42;;;;;;;6.55;4.10;;;6.80;99.90;;;;;;5012174;28;20034;-73
2021/04/06 12:39:07;;;;;;;7.65;4.10;;;5.30;99.90;;;;;;5013188;28;20084;-72
2021/04/06 12:41:33;;;;;;;6.97;4.95;;;4.80;99.90;;;;;;5012928;28;20026;-73
2021/04/06 12:43:58;;;;;;;8.63;4.97;;;4.80;99.90;;;;;;5012753;28;20034;-73
2021/04/06 12:46:24;;;;;;;9.05;5.75;;;4.80;99.90;;;;;;5012075;28;20025;-72
2021/04/06 12:48:50;;;;;;;5.70;4.55;;;5.30;99.90;;;;;;5013158;28;20380;-73
2021/04/06 12:51:15;;;;;;;8.23;3.72;;;5.70;99.90;;;;;;5011653;28;20373;-73
2021/04/06 12:53:41;;;;;;;6.55;4.10;;;4.90;99.90;;;;;;5012587;28;20033;-72
2021/04/06 12:56:06;;;;;;;9.27;4.15;;;4.40;99.90;;;;;;5012791;28;20026;-73
2021/04/06 12:58:32;;;;;;;6.55;2.88;;;3.70;99.90;;;;;;5012673;28;20494;-72
2021/04/06 13:00:58;;;;;;;4.55;2.55;;;3.40;99.90;;;;;;5012662;28;20030;-72